sensor_id;sensor_type;location;lat;lon;timestamp;P1;durP1;ratioP1;P2;durP2;ratioP2
52208;SDS011;38507;53.132;6.394;2024-01-07T00:01:38;13.82;;;7.32;;
52208;SDS011;38507;53.132;6.394;2024-01-07T00:04:03;14.20;;;7.53;;
52208;SDS011;38507;53.132;6.394;2024-01-07T00:06:29;18.50;;;8.52;;
52208;SDS011;38507;53.132;6.394;2024-01-07T00:08:55;16.67;;;8.82;;
52208;SDS011;38507;53.132;6.394;2024-01-07T00:11:20;17.73;;;8.80;;
52208;SDS011;38507;53.132;6.394;2024-01-07T00:13:46;16.23;;;8.85;;
52208;SDS011;38507;53.132;6.394;2024-01-07T00:16:20;16.70;;;8.65;;
52208;SDS011;38507;53.132;6.394;2024-01-07T00:18:46;16.10;;;8.93;;
52208;SDS011;38507;53.132;6.394;2024-01-07T00:21:12;16.67;;;9.00;;
52208;SDS011;38507;53.132;6.394;2024-01-07T00:23:37;15.60;;;8.55;;
52208;SDS011;38507;53.132;6.394;2024-01-07T00:26:03;14.02;;;8.93;;
52208;SDS011;38507;53.132;6.394;2024-01-07T00:28:29;17.13;;;8.65;;
52208;SDS011;38507;53.132;6.394;2024-01-07T00:30:55;14.52;;;8.63;;
52208;SDS011;38507;53.132;6.394;2024-01-07T00:33:20;17.52;;;8.50;;
52208;SDS011;38507;53.132;6.394;2024-01-07T00:35:46;17.92;;;8.63;;
52208;SDS011;38507;53.132;6.394;2024-01-07T00:38:12;14.45;;;7.28;;
52208;SDS011;38507;53.132;6.394;2024-01-07T00:40:37;14.57;;;7.15;;
52208;SDS011;38507;53.132;6.394;2024-01-07T00:43:03;12.00;;;6.45;;
52208;SDS011;38507;53.132;6.394;2024-01-07T00:45:29;12.05;;;6.63;;
52208;SDS011;38507;53.132;6.394;2024-01-07T00:47:54;12.77;;;7.25;;
52208;SDS011;38507;53.132;6.394;2024-01-07T00:50:20;10.75;;;6.70;;
52208;SDS011;38507;53.132;6.394;2024-01-07T00:52:46;11.68;;;6.75;;
52208;SDS011;38507;53.132;6.394;2024-01-07T00:55:11;12.85;;;6.63;;
52208;SDS011;38507;53.132;6.394;2024-01-07T00:57:37;14.55;;;7.40;;
52208;SDS011;38507;53.132;6.394;2024-01-07T01:00:16;13.15;;;7.40;;
52208;SDS011;38507;53.132;6.394;2024-01-07T01:02:42;10.20;;;6.40;;
52208;SDS011;38507;53.132;6.394;2024-01-07T01:05:10;13.77;;;6.75;;
52208;SDS011;38507;53.132;6.394;2024-01-07T01:07:36;13.50;;;6.50;;
52208;SDS011;38507;53.132;6.394;2024-01-07T01:10:01;14.30;;;6.50;;
52208;SDS011;38507;53.132;6.394;2024-01-07T01:12:38;10.65;;;6.35;;
52208;SDS011;38507;53.132;6.394;2024-01-07T01:15:04;9.60;;;5.95;;
52208;SDS011;38507;53.132;6.394;2024-01-07T01:17:30;10.18;;;5.75;;
52208;SDS011;38507;53.132;6.394;2024-01-07T01:19:55;10.68;;;5.95;;
52208;SDS011;38507;53.132;6.394;2024-01-07T01:22:28;8.85;;;5.70;;
52208;SDS011;38507;53.132;6.394;2024-01-07T01:24:53;11.63;;;6.38;;
52208;SDS011;38507;53.132;6.394;2024-01-07T01:27:21;10.90;;;6.20;;
52208;SDS011;38507;53.132;6.394;2024-01-07T01:29:46;11.27;;;6.47;;
52208;SDS011;38507;53.132;6.394;2024-01-07T01:32:12;13.25;;;7.00;;
52208;SDS011;38507;53.132;6.394;2024-01-07T01:34:39;11.48;;;7.00;;
52208;SDS011;38507;53.132;6.394;2024-01-07T01:37:05;14.32;;;7.00;;
52208;SDS011;38507;53.132;6.394;2024-01-07T01:39:33;15.85;;;7.05;;
52208;SDS011;38507;53.132;6.394;2024-01-07T01:41:58;14.60;;;7.03;;
52208;SDS011;38507;53.132;6.394;2024-01-07T01:44:24;15.60;;;7.25;;
52208;SDS011;38507;53.132;6.394;2024-01-07T01:46:52;13.75;;;7.10;;
52208;SDS011;38507;53.132;6.394;2024-01-07T01:49:18;13.07;;;7.32;;
52208;SDS011;38507;53.132;6.394;2024-01-07T01:51:43;11.40;;;6.70;;
52208;SDS011;38507;53.132;6.394;2024-01-07T01:54:09;12.38;;;6.38;;
52208;SDS011;38507;53.132;6.394;2024-01-07T01:56:36;12.52;;;6.75;;
52208;SDS011;38507;53.132;6.394;2024-01-07T01:59:01;10.18;;;6.07;;
52208;SDS011;38507;53.132;6.394;2024-01-07T02:01:27;10.07;;;4.60;;
52208;SDS011;38507;53.132;6.394;2024-01-07T02:03:54;10.13;;;5.68;;
52208;SDS011;38507;53.132;6.394;2024-01-07T02:06:20;11.82;;;5.97;;
52208;SDS011;38507;53.132;6.394;2024-01-07T02:08:46;11.35;;;5.25;;
52208;SDS011;38507;53.132;6.394;2024-01-07T02:11:15;12.35;;;5.38;;
52208;SDS011;38507;53.132;6.394;2024-01-07T02:13:45;8.77;;;4.82;;
52208;SDS011;38507;53.132;6.394;2024-01-07T02:16:11;9.48;;;5.15;;
52208;SDS011;38507;53.132;6.394;2024-01-07T02:18:38;8.20;;;5.00;;
52208;SDS011;38507;53.132;6.394;2024-01-07T02:21:09;9.50;;;5.32;;
52208;SDS011;38507;53.132;6.394;2024-01-07T02:23:36;9.73;;;5.10;;
52208;SDS011;38507;53.132;6.394;2024-01-07T02:26:02;13.15;;;5.20;;
52208;SDS011;38507;53.132;6.394;2024-01-07T02:28:28;8.13;;;4.22;;
52208;SDS011;38507;53.132;6.394;2024-01-07T02:30:55;11.68;;;5.32;;
52208;SDS011;38507;53.132;6.394;2024-01-07T02:33:37;10.25;;;4.80;;
52208;SDS011;38507;53.132;6.394;2024-01-07T02:36:03;12.13;;;5.00;;
52208;SDS011;38507;53.132;6.394;2024-01-07T02:38:29;10.50;;;5.05;;
52208;SDS011;38507;53.132;6.394;2024-01-07T02:40:55;12.95;;;4.68;;
52208;SDS011;38507;53.132;6.394;2024-01-07T02:43:20;10.68;;;5.20;;
52208;SDS011;38507;53.132;6.394;2024-01-07T02:45:46;8.85;;;4.95;;
52208;SDS011;38507;53.132;6.394;2024-01-07T02:48:11;10.93;;;5.40;;
52208;SDS011;38507;53.132;6.394;2024-01-07T02:50:37;10.45;;;5.07;;
52208;SDS011;38507;53.132;6.394;2024-01-07T02:53:03;10.98;;;4.97;;
52208;SDS011;38507;53.132;6.394;2024-01-07T02:55:29;10.50;;;5.25;;
52208;SDS011;38507;53.132;6.394;2024-01-07T02:57:55;10.00;;;5.25;;
52208;SDS011;38507;53.132;6.394;2024-01-07T03:00:20;8.23;;;4.47;;
52208;SDS011;38507;53.132;6.394;2024-01-07T03:02:46;7.80;;;4.50;;
52208;SDS011;38507;53.132;6.394;2024-01-07T03:05:11;9.82;;;4.90;;
52208;SDS011;38507;53.132;6.394;2024-01-07T03:07:37;7.72;;;4.22;;
52208;SDS011;38507;53.132;6.394;2024-01-07T03:10:05;8.77;;;4.80;;
52208;SDS011;38507;53.132;6.394;2024-01-07T03:12:31;8.00;;;4.13;;
52208;SDS011;38507;53.132;6.394;2024-01-07T03:14:57;9.68;;;4.38;;
52208;SDS011;38507;53.132;6.394;2024-01-07T03:17:22;7.22;;;4.07;;
52208;SDS011;38507;53.132;6.394;2024-01-07T03:19:49;7.05;;;3.83;;
52208;SDS011;38507;53.132;6.394;2024-01-07T03:22:14;7.25;;;3.70;;
52208;SDS011;38507;53.132;6.394;2024-01-07T03:24:41;8.80;;;3.95;;
52208;SDS011;38507;53.132;6.394;2024-01-07T03:27:07;6.65;;;3.83;;
52208;SDS011;38507;53.132;6.394;2024-01-07T03:29:33;7.93;;;4.13;;
52208;SDS011;38507;53.132;6.394;2024-01-07T03:31:58;6.13;;;3.88;;
52208;SDS011;38507;53.132;6.394;2024-01-07T03:34:24;7.22;;;3.35;;
52208;SDS011;38507;53.132;6.394;2024-01-07T03:36:49;8.32;;;3.78;;
52208;SDS011;38507;53.132;6.394;2024-01-07T03:39:15;7.55;;;3.50;;
52208;SDS011;38507;53.132;6.394;2024-01-07T03:41:41;6.53;;;3.20;;
52208;SDS011;38507;53.132;6.394;2024-01-07T03:44:06;7.10;;;3.28;;
52208;SDS011;38507;53.132;6.394;2024-01-07T03:46:32;6.35;;;3.17;;
52208;SDS011;38507;53.132;6.394;2024-01-07T03:48:58;7.10;;;3.42;;
52208;SDS011;38507;53.132;6.394;2024-01-07T03:51:24;7.28;;;3.15;;
52208;SDS011;38507;53.132;6.394;2024-01-07T03:53:49;8.93;;;3.83;;
52208;SDS011;38507;53.132;6.394;2024-01-07T03:56:15;6.22;;;3.28;;
52208;SDS011;38507;53.132;6.394;2024-01-07T03:58:40;8.30;;;3.33;;
52208;SDS011;38507;53.132;6.394;2024-01-07T04:01:06;6.78;;;3.15;;
52208;SDS011;38507;53.132;6.394;2024-01-07T04:03:32;6.90;;;3.42;;
52208;SDS011;38507;53.132;6.394;2024-01-07T04:05:57;6.78;;;3.22;;
52208;SDS011;38507;53.132;6.394;2024-01-07T04:08:23;6.10;;;3.20;;
52208;SDS011;38507;53.132;6.394;2024-01-07T04:10:48;7.70;;;3.30;;
52208;SDS011;38507;53.132;6.394;2024-01-07T04:13:14;6.50;;;2.80;;
52208;SDS011;38507;53.132;6.394;2024-01-07T04:15:40;5.18;;;2.53;;
52208;SDS011;38507;53.132;6.394;2024-01-07T04:18:05;7.35;;;2.90;;
52208;SDS011;38507;53.132;6.394;2024-01-07T04:20:31;7.53;;;2.92;;
52208;SDS011;38507;53.132;6.394;2024-01-07T04:22:57;7.68;;;2.60;;
52208;SDS011;38507;53.132;6.394;2024-01-07T04:25:26;5.05;;;2.53;;
52208;SDS011;38507;53.132;6.394;2024-01-07T04:27:51;5.63;;;2.70;;
52208;SDS011;38507;53.132;6.394;2024-01-07T04:30:17;6.55;;;2.50;;
52208;SDS011;38507;53.132;6.394;2024-01-07T04:32:43;7.15;;;2.63;;
52208;SDS011;38507;53.132;6.394;2024-01-07T04:35:08;4.38;;;2.25;;
52208;SDS011;38507;53.132;6.394;2024-01-07T04:37:35;4.00;;;2.22;;
52208;SDS011;38507;53.132;6.394;2024-01-07T04:40:01;4.55;;;2.17;;
52208;SDS011;38507;53.132;6.394;2024-01-07T04:42:27;4.18;;;2.47;;
52208;SDS011;38507;53.132;6.394;2024-01-07T04:44:53;6.20;;;2.30;;
52208;SDS011;38507;53.132;6.394;2024-01-07T04:47:25;9.48;;;2.42;;
52208;SDS011;38507;53.132;6.394;2024-01-07T04:49:55;4.15;;;2.15;;
52208;SDS011;38507;53.132;6.394;2024-01-07T04:52:22;4.45;;;2.25;;
52208;SDS011;38507;53.132;6.394;2024-01-07T04:54:48;4.65;;;1.95;;
52208;SDS011;38507;53.132;6.394;2024-01-07T04:57:18;4.90;;;2.30;;
52208;SDS011;38507;53.132;6.394;2024-01-07T04:59:43;5.63;;;1.92;;
52208;SDS011;38507;53.132;6.394;2024-01-07T05:02:10;5.35;;;2.08;;
52208;SDS011;38507;53.132;6.394;2024-01-07T05:04:36;3.55;;;1.90;;
52208;SDS011;38507;53.132;6.394;2024-01-07T05:07:02;5.45;;;2.00;;
52208;SDS011;38507;53.132;6.394;2024-01-07T05:09:28;4.85;;;2.08;;
52208;SDS011;38507;53.132;6.394;2024-01-07T05:11:53;6.63;;;1.70;;
52208;SDS011;38507;53.132;6.394;2024-01-07T05:14:19;4.53;;;2.10;;
52208;SDS011;38507;53.132;6.394;2024-01-07T05:16:45;4.93;;;1.92;;
52208;SDS011;38507;53.132;6.394;2024-01-07T05:19:10;6.30;;;1.75;;
52208;SDS011;38507;53.132;6.394;2024-01-07T05:21:36;5.88;;;1.60;;
52208;SDS011;38507;53.132;6.394;2024-01-07T05:24:02;6.75;;;1.70;;
52208;SDS011;38507;53.132;6.394;2024-01-07T05:26:29;5.45;;;1.65;;
52208;SDS011;38507;53.132;6.394;2024-01-07T05:28:55;4.13;;;1.80;;
52208;SDS011;38507;53.132;6.394;2024-01-07T05:31:20;4.00;;;1.92;;
52208;SDS011;38507;53.132;6.394;2024-01-07T05:33:46;3.90;;;1.40;;
52208;SDS011;38507;53.132;6.394;2024-01-07T05:36:12;2.78;;;1.40;;
52208;SDS011;38507;53.132;6.394;2024-01-07T05:38:38;7.15;;;1.52;;
52208;SDS011;38507;53.132;6.394;2024-01-07T05:41:04;7.70;;;1.40;;
52208;SDS011;38507;53.132;6.394;2024-01-07T05:43:30;3.50;;;1.67;;
52208;SDS011;38507;53.132;6.394;2024-01-07T05:45:55;5.43;;;2.20;;
52208;SDS011;38507;53.132;6.394;2024-01-07T05:48:21;4.30;;;1.50;;
52208;SDS011;38507;53.132;6.394;2024-01-07T05:50:48;4.95;;;1.80;;
52208;SDS011;38507;53.132;6.394;2024-01-07T05:53:14;4.50;;;2.03;;
52208;SDS011;38507;53.132;6.394;2024-01-07T05:55:39;4.93;;;1.40;;
52208;SDS011;38507;53.132;6.394;2024-01-07T05:58:05;5.20;;;1.65;;
52208;SDS011;38507;53.132;6.394;2024-01-07T06:00:31;5.50;;;1.23;;
52208;SDS011;38507;53.132;6.394;2024-01-07T06:02:58;4.57;;;2.10;;
52208;SDS011;38507;53.132;6.394;2024-01-07T06:05:24;3.50;;;1.50;;
52208;SDS011;38507;53.132;6.394;2024-01-07T06:07:50;4.18;;;1.58;;
52208;SDS011;38507;53.132;6.394;2024-01-07T06:10:15;4.93;;;1.48;;
52208;SDS011;38507;53.132;6.394;2024-01-07T06:12:41;5.47;;;1.52;;
52208;SDS011;38507;53.132;6.394;2024-01-07T06:15:07;5.75;;;1.40;;
52208;SDS011;38507;53.132;6.394;2024-01-07T06:17:33;4.18;;;1.42;;
52208;SDS011;38507;53.132;6.394;2024-01-07T06:19:59;4.13;;;1.42;;
52208;SDS011;38507;53.132;6.394;2024-01-07T06:22:24;5.78;;;1.45;;
52208;SDS011;38507;53.132;6.394;2024-01-07T06:24:50;3.13;;;1.27;;
52208;SDS011;38507;53.132;6.394;2024-01-07T06:27:16;5.88;;;1.67;;
52208;SDS011;38507;53.132;6.394;2024-01-07T06:29:41;3.00;;;1.05;;
52208;SDS011;38507;53.132;6.394;2024-01-07T06:32:07;2.58;;;1.27;;
52208;SDS011;38507;53.132;6.394;2024-01-07T06:34:34;4.68;;;1.33;;
52208;SDS011;38507;53.132;6.394;2024-01-07T06:37:00;2.38;;;1.23;;
52208;SDS011;38507;53.132;6.394;2024-01-07T06:39:26;3.70;;;1.20;;
52208;SDS011;38507;53.132;6.394;2024-01-07T06:41:52;1.92;;;1.23;;
52208;SDS011;38507;53.132;6.394;2024-01-07T06:44:18;3.35;;;1.25;;
52208;SDS011;38507;53.132;6.394;2024-01-07T06:46:43;4.80;;;1.50;;
52208;SDS011;38507;53.132;6.394;2024-01-07T06:49:09;3.53;;;1.23;;
52208;SDS011;38507;53.132;6.394;2024-01-07T06:51:35;3.53;;;1.42;;
52208;SDS011;38507;53.132;6.394;2024-01-07T06:54:00;2.90;;;1.25;;
52208;SDS011;38507;53.132;6.394;2024-01-07T06:56:26;3.47;;;1.40;;
52208;SDS011;38507;53.132;6.394;2024-01-07T06:58:52;6.68;;;1.40;;
52208;SDS011;38507;53.132;6.394;2024-01-07T07:01:19;4.72;;;1.20;;
52208;SDS011;38507;53.132;6.394;2024-01-07T07:03:46;4.50;;;1.38;;
52208;SDS011;38507;53.132;6.394;2024-01-07T07:06:11;4.38;;;1.50;;
52208;SDS011;38507;53.132;6.394;2024-01-07T07:08:38;4.80;;;1.23;;
52208;SDS011;38507;53.132;6.394;2024-01-07T07:11:03;3.70;;;1.10;;
52208;SDS011;38507;53.132;6.394;2024-01-07T07:13:29;3.08;;;1.50;;
52208;SDS011;38507;53.132;6.394;2024-01-07T07:15:55;2.72;;;1.17;;
52208;SDS011;38507;53.132;6.394;2024-01-07T07:18:20;2.78;;;1.17;;
52208;SDS011;38507;53.132;6.394;2024-01-07T07:20:46;4.57;;;1.30;;
52208;SDS011;38507;53.132;6.394;2024-01-07T07:23:12;2.97;;;1.10;;
52208;SDS011;38507;53.132;6.394;2024-01-07T07:25:38;4.53;;;1.50;;
52208;SDS011;38507;53.132;6.394;2024-01-07T07:28:04;4.88;;;1.25;;
52208;SDS011;38507;53.132;6.394;2024-01-07T07:30:30;3.78;;;1.33;;
52208;SDS011;38507;53.132;6.394;2024-01-07T07:32:55;2.60;;;1.30;;
52208;SDS011;38507;53.132;6.394;2024-01-07T07:35:21;2.97;;;1.10;;
52208;SDS011;38507;53.132;6.394;2024-01-07T07:37:47;2.47;;;1.27;;
52208;SDS011;38507;53.132;6.394;2024-01-07T07:40:12;2.47;;;1.08;;
52208;SDS011;38507;53.132;6.394;2024-01-07T07:42:38;2.65;;;1.10;;
52208;SDS011;38507;53.132;6.394;2024-01-07T07:45:04;3.85;;;1.00;;
52208;SDS011;38507;53.132;6.394;2024-01-07T07:47:30;2.35;;;1.15;;
52208;SDS011;38507;53.132;6.394;2024-01-07T07:49:56;4.65;;;1.33;;
52208;SDS011;38507;53.132;6.394;2024-01-07T07:52:22;2.67;;;1.25;;
52208;SDS011;38507;53.132;6.394;2024-01-07T07:54:51;3.28;;;1.30;;
52208;SDS011;38507;53.132;6.394;2024-01-07T07:57:17;2.17;;;1.10;;
52208;SDS011;38507;53.132;6.394;2024-01-07T07:59:45;3.03;;;1.13;;
52208;SDS011;38507;53.132;6.394;2024-01-07T08:02:11;2.58;;;1.30;;
52208;SDS011;38507;53.132;6.394;2024-01-07T08:04:37;2.10;;;1.20;;
52208;SDS011;38507;53.132;6.394;2024-01-07T08:07:06;3.75;;;0.98;;
52208;SDS011;38507;53.132;6.394;2024-01-07T08:09:32;3.88;;;1.08;;
52208;SDS011;38507;53.132;6.394;2024-01-07T08:11:58;2.47;;;1.05;;
52208;SDS011;38507;53.132;6.394;2024-01-07T08:14:23;4.55;;;1.17;;
52208;SDS011;38507;53.132;6.394;2024-01-07T08:16:49;2.35;;;1.20;;
52208;SDS011;38507;53.132;6.394;2024-01-07T08:19:15;6.07;;;1.33;;
52208;SDS011;38507;53.132;6.394;2024-01-07T08:21:40;3.08;;;1.30;;
52208;SDS011;38507;53.132;6.394;2024-01-07T08:24:06;2.80;;;1.23;;
52208;SDS011;38507;53.132;6.394;2024-01-07T08:26:32;3.35;;;1.50;;
52208;SDS011;38507;53.132;6.394;2024-01-07T08:28:59;3.03;;;1.40;;
52208;SDS011;38507;53.132;6.394;2024-01-07T08:31:25;4.53;;;1.52;;
52208;SDS011;38507;53.132;6.394;2024-01-07T08:33:50;4.35;;;1.60;;
52208;SDS011;38507;53.132;6.394;2024-01-07T08:36:16;2.65;;;1.35;;
52208;SDS011;38507;53.132;6.394;2024-01-07T08:38:42;2.53;;;1.55;;
52208;SDS011;38507;53.132;6.394;2024-01-07T08:41:07;3.97;;;1.50;;
52208;SDS011;38507;53.132;6.394;2024-01-07T08:43:33;4.32;;;1.48;;
52208;SDS011;38507;53.132;6.394;2024-01-07T08:45:59;3.20;;;1.30;;
52208;SDS011;38507;53.132;6.394;2024-01-07T08:48:24;3.22;;;1.33;;
52208;SDS011;38507;53.132;6.394;2024-01-07T08:50:50;6.97;;;1.70;;
52208;SDS011;38507;53.132;6.394;2024-01-07T08:53:16;4.40;;;1.48;;
52208;SDS011;38507;53.132;6.394;2024-01-07T08:55:43;5.28;;;1.38;;
52208;SDS011;38507;53.132;6.394;2024-01-07T08:58:09;6.57;;;1.75;;
52208;SDS011;38507;53.132;6.394;2024-01-07T09:00:34;2.83;;;1.52;;
52208;SDS011;38507;53.132;6.394;2024-01-07T09:03:00;4.10;;;1.60;;
52208;SDS011;38507;53.132;6.394;2024-01-07T09:05:26;4.28;;;1.35;;
52208;SDS011;38507;53.132;6.394;2024-01-07T09:07:51;4.65;;;1.45;;
52208;SDS011;38507;53.132;6.394;2024-01-07T09:10:17;7.53;;;1.55;;
52208;SDS011;38507;53.132;6.394;2024-01-07T09:12:45;2.85;;;1.45;;
52208;SDS011;38507;53.132;6.394;2024-01-07T09:15:11;4.30;;;1.40;;
52208;SDS011;38507;53.132;6.394;2024-01-07T09:17:37;4.13;;;1.45;;
52208;SDS011;38507;53.132;6.394;2024-01-07T09:20:03;4.82;;;1.20;;
52208;SDS011;38507;53.132;6.394;2024-01-07T09:22:35;3.80;;;1.25;;
52208;SDS011;38507;53.132;6.394;2024-01-07T09:25:04;2.88;;;1.35;;
52208;SDS011;38507;53.132;6.394;2024-01-07T09:27:31;11.80;;;2.53;;
52208;SDS011;38507;53.132;6.394;2024-01-07T09:29:57;3.28;;;1.67;;
52208;SDS011;38507;53.132;6.394;2024-01-07T09:32:23;4.45;;;1.20;;
52208;SDS011;38507;53.132;6.394;2024-01-07T09:34:49;3.90;;;1.45;;
52208;SDS011;38507;53.132;6.394;2024-01-07T09:37:16;4.40;;;1.35;;
52208;SDS011;38507;53.132;6.394;2024-01-07T09:39:42;3.28;;;1.38;;
52208;SDS011;38507;53.132;6.394;2024-01-07T09:42:12;6.03;;;1.42;;
52208;SDS011;38507;53.132;6.394;2024-01-07T09:44:42;2.45;;;1.20;;
52208;SDS011;38507;53.132;6.394;2024-01-07T09:47:14;2.47;;;1.20;;
52208;SDS011;38507;53.132;6.394;2024-01-07T09:49:40;4.38;;;1.35;;
52208;SDS011;38507;53.132;6.394;2024-01-07T09:52:08;4.13;;;1.20;;
52208;SDS011;38507;53.132;6.394;2024-01-07T09:54:37;4.38;;;1.58;;
52208;SDS011;38507;53.132;6.394;2024-01-07T09:57:04;4.72;;;1.40;;
52208;SDS011;38507;53.132;6.394;2024-01-07T09:59:34;3.25;;;1.25;;
52208;SDS011;38507;53.132;6.394;2024-01-07T10:02:01;2.15;;;1.02;;
52208;SDS011;38507;53.132;6.394;2024-01-07T10:04:28;5.75;;;1.50;;
52208;SDS011;38507;53.132;6.394;2024-01-07T10:06:54;6.32;;;1.58;;
52208;SDS011;38507;53.132;6.394;2024-01-07T10:09:32;3.20;;;1.35;;
52208;SDS011;38507;53.132;6.394;2024-01-07T10:11:58;3.92;;;1.40;;
52208;SDS011;38507;53.132;6.394;2024-01-07T10:14:24;4.53;;;1.30;;
52208;SDS011;38507;53.132;6.394;2024-01-07T10:16:51;6.53;;;1.77;;
52208;SDS011;38507;53.132;6.394;2024-01-07T10:19:20;3.25;;;1.48;;
52208;SDS011;38507;53.132;6.394;2024-01-07T10:21:47;2.95;;;1.40;;
52208;SDS011;38507;53.132;6.394;2024-01-07T10:24:41;6.55;;;1.85;;
52208;SDS011;38507;53.132;6.394;2024-01-07T10:27:08;3.80;;;1.70;;
52208;SDS011;38507;53.132;6.394;2024-01-07T10:29:35;5.05;;;1.60;;
52208;SDS011;38507;53.132;6.394;2024-01-07T10:32:01;3.60;;;1.98;;
52208;SDS011;38507;53.132;6.394;2024-01-07T10:34:28;5.15;;;1.65;;
52208;SDS011;38507;53.132;6.394;2024-01-07T10:36:58;5.28;;;1.88;;
52208;SDS011;38507;53.132;6.394;2024-01-07T10:39:25;5.30;;;1.40;;
52208;SDS011;38507;53.132;6.394;2024-01-07T10:41:57;3.35;;;1.30;;
52208;SDS011;38507;53.132;6.394;2024-01-07T10:44:26;3.63;;;1.50;;
52208;SDS011;38507;53.132;6.394;2024-01-07T10:46:53;3.92;;;1.48;;
52208;SDS011;38507;53.132;6.394;2024-01-07T10:49:20;2.95;;;1.58;;
52208;SDS011;38507;53.132;6.394;2024-01-07T10:51:50;7.50;;;1.92;;
52208;SDS011;38507;53.132;6.394;2024-01-07T10:54:30;5.97;;;2.67;;
52208;SDS011;38507;53.132;6.394;2024-01-07T10:56:59;5.97;;;2.35;;
52208;SDS011;38507;53.132;6.394;2024-01-07T10:59:45;5.95;;;2.15;;
52208;SDS011;38507;53.132;6.394;2024-01-07T11:02:15;3.88;;;2.22;;
52208;SDS011;38507;53.132;6.394;2024-01-07T11:04:51;5.80;;;2.55;;
52208;SDS011;38507;53.132;6.394;2024-01-07T11:07:33;6.95;;;3.50;;
52208;SDS011;38507;53.132;6.394;2024-01-07T11:10:20;4.63;;;2.60;;
52208;SDS011;38507;53.132;6.394;2024-01-07T11:12:53;4.70;;;2.03;;
52208;SDS011;38507;53.132;6.394;2024-01-07T11:18:22;5.18;;;1.60;;
52208;SDS011;38507;53.132;6.394;2024-01-07T11:20:48;6.75;;;1.70;;
52208;SDS011;38507;53.132;6.394;2024-01-07T11:23:30;6.82;;;3.17;;
52208;SDS011;38507;53.132;6.394;2024-01-07T11:26:02;6.50;;;2.45;;
52208;SDS011;38507;53.132;6.394;2024-01-07T11:31:13;6.43;;;1.92;;
52208;SDS011;38507;53.132;6.394;2024-01-07T11:33:46;5.78;;;2.35;;
52208;SDS011;38507;53.132;6.394;2024-01-07T11:36:14;4.07;;;1.50;;
52208;SDS011;38507;53.132;6.394;2024-01-07T11:38:42;4.50;;;1.50;;
52208;SDS011;38507;53.132;6.394;2024-01-07T11:41:09;3.65;;;1.58;;
52208;SDS011;38507;53.132;6.394;2024-01-07T11:43:37;6.65;;;1.67;;
52208;SDS011;38507;53.132;6.394;2024-01-07T11:46:04;5.03;;;1.80;;
52208;SDS011;38507;53.132;6.394;2024-01-07T11:48:31;4.35;;;1.90;;
52208;SDS011;38507;53.132;6.394;2024-01-07T11:50:56;7.35;;;2.40;;
52208;SDS011;38507;53.132;6.394;2024-01-07T11:53:22;4.78;;;2.20;;
52208;SDS011;38507;53.132;6.394;2024-01-07T11:55:48;10.68;;;2.60;;
52208;SDS011;38507;53.132;6.394;2024-01-07T11:58:13;7.03;;;2.53;;
52208;SDS011;38507;53.132;6.394;2024-01-07T12:00:39;4.00;;;2.03;;
52208;SDS011;38507;53.132;6.394;2024-01-07T12:03:05;5.70;;;2.58;;
52208;SDS011;38507;53.132;6.394;2024-01-07T12:05:30;4.38;;;2.42;;
52208;SDS011;38507;53.132;6.394;2024-01-07T12:07:56;4.03;;;2.17;;
52208;SDS011;38507;53.132;6.394;2024-01-07T12:10:25;5.47;;;2.22;;
52208;SDS011;38507;53.132;6.394;2024-01-07T12:12:50;5.78;;;2.60;;
52208;SDS011;38507;53.132;6.394;2024-01-07T12:15:17;5.90;;;2.30;;
52208;SDS011;38507;53.132;6.394;2024-01-07T12:17:47;5.32;;;2.78;;
52208;SDS011;38507;53.132;6.394;2024-01-07T12:20:23;6.40;;;2.70;;
52208;SDS011;38507;53.132;6.394;2024-01-07T12:22:50;5.78;;;2.50;;
52208;SDS011;38507;53.132;6.394;2024-01-07T12:25:20;7.35;;;2.70;;
52208;SDS011;38507;53.132;6.394;2024-01-07T12:27:48;5.32;;;2.55;;
52208;SDS011;38507;53.132;6.394;2024-01-07T12:30:17;6.95;;;2.63;;
52208;SDS011;38507;53.132;6.394;2024-01-07T12:32:44;4.78;;;2.42;;
52208;SDS011;38507;53.132;6.394;2024-01-07T12:35:10;5.22;;;2.80;;
52208;SDS011;38507;53.132;6.394;2024-01-07T12:37:36;5.65;;;2.85;;
52208;SDS011;38507;53.132;6.394;2024-01-07T12:40:02;5.72;;;2.95;;
52208;SDS011;38507;53.132;6.394;2024-01-07T12:42:29;4.80;;;2.13;;
52208;SDS011;38507;53.132;6.394;2024-01-07T12:44:55;7.30;;;2.85;;
52208;SDS011;38507;53.132;6.394;2024-01-07T12:47:21;10.57;;;2.90;;
52208;SDS011;38507;53.132;6.394;2024-01-07T12:49:46;7.55;;;2.60;;
52208;SDS011;38507;53.132;6.394;2024-01-07T12:52:12;6.45;;;2.60;;
52208;SDS011;38507;53.132;6.394;2024-01-07T12:54:38;7.35;;;2.85;;
52208;SDS011;38507;53.132;6.394;2024-01-07T12:57:04;7.03;;;3.10;;
52208;SDS011;38507;53.132;6.394;2024-01-07T12:59:30;5.72;;;3.00;;
52208;SDS011;38507;53.132;6.394;2024-01-07T13:01:56;7.43;;;2.50;;
52208;SDS011;38507;53.132;6.394;2024-01-07T13:04:22;7.93;;;3.38;;
52208;SDS011;38507;53.132;6.394;2024-01-07T13:06:47;5.35;;;2.80;;
52208;SDS011;38507;53.132;6.394;2024-01-07T13:09:13;6.03;;;2.95;;
52208;SDS011;38507;53.132;6.394;2024-01-07T13:11:39;5.80;;;2.50;;
52208;SDS011;38507;53.132;6.394;2024-01-07T13:14:04;8.48;;;2.97;;
52208;SDS011;38507;53.132;6.394;2024-01-07T13:16:30;7.32;;;2.25;;
52208;SDS011;38507;53.132;6.394;2024-01-07T13:18:56;5.18;;;2.75;;
52208;SDS011;38507;53.132;6.394;2024-01-07T13:21:22;6.07;;;2.70;;
52208;SDS011;38507;53.132;6.394;2024-01-07T13:23:47;4.65;;;2.33;;
52208;SDS011;38507;53.132;6.394;2024-01-07T13:26:16;6.47;;;2.78;;
52208;SDS011;38507;53.132;6.394;2024-01-07T13:28:42;5.32;;;2.63;;
52208;SDS011;38507;53.132;6.394;2024-01-07T13:31:08;9.98;;;3.40;;
52208;SDS011;38507;53.132;6.394;2024-01-07T13:33:34;8.57;;;3.25;;
52208;SDS011;38507;53.132;6.394;2024-01-07T13:36:00;7.13;;;3.40;;
52208;SDS011;38507;53.132;6.394;2024-01-07T13:38:28;7.90;;;2.78;;
52208;SDS011;38507;53.132;6.394;2024-01-07T13:40:53;6.15;;;2.83;;
52208;SDS011;38507;53.132;6.394;2024-01-07T13:43:19;6.47;;;2.72;;
52208;SDS011;38507;53.132;6.394;2024-01-07T13:45:45;9.60;;;2.45;;
52208;SDS011;38507;53.132;6.394;2024-01-07T13:48:11;8.07;;;3.00;;
52208;SDS011;38507;53.132;6.394;2024-01-07T13:50:36;6.47;;;2.78;;
52208;SDS011;38507;53.132;6.394;2024-01-07T13:53:02;7.40;;;3.65;;
52208;SDS011;38507;53.132;6.394;2024-01-07T13:55:28;7.55;;;3.30;;
52208;SDS011;38507;53.132;6.394;2024-01-07T13:57:53;6.35;;;3.15;;
52208;SDS011;38507;53.132;6.394;2024-01-07T14:00:19;8.57;;;3.38;;
52208;SDS011;38507;53.132;6.394;2024-01-07T14:02:45;8.25;;;3.40;;
52208;SDS011;38507;53.132;6.394;2024-01-07T14:05:14;6.65;;;3.17;;
52208;SDS011;38507;53.132;6.394;2024-01-07T14:07:40;8.57;;;3.55;;
52208;SDS011;38507;53.132;6.394;2024-01-07T14:10:06;6.40;;;3.50;;
52208;SDS011;38507;53.132;6.394;2024-01-07T14:12:33;6.03;;;2.78;;
52208;SDS011;38507;53.132;6.394;2024-01-07T14:14:59;6.38;;;3.10;;
52208;SDS011;38507;53.132;6.394;2024-01-07T14:17:25;7.97;;;3.25;;
52208;SDS011;38507;53.132;6.394;2024-01-07T14:19:51;8.02;;;3.40;;
52208;SDS011;38507;53.132;6.394;2024-01-07T14:22:20;7.70;;;3.00;;
52208;SDS011;38507;53.132;6.394;2024-01-07T14:24:46;7.35;;;3.10;;
52208;SDS011;38507;53.132;6.394;2024-01-07T14:27:13;4.97;;;2.83;;
52208;SDS011;38507;53.132;6.394;2024-01-07T14:29:40;6.78;;;2.90;;
52208;SDS011;38507;53.132;6.394;2024-01-07T14:32:06;5.90;;;3.40;;
52208;SDS011;38507;53.132;6.394;2024-01-07T14:34:31;6.40;;;3.28;;
52208;SDS011;38507;53.132;6.394;2024-01-07T14:36:57;7.18;;;3.88;;
52208;SDS011;38507;53.132;6.394;2024-01-07T14:39:23;7.93;;;3.38;;
52208;SDS011;38507;53.132;6.394;2024-01-07T14:41:48;7.10;;;2.83;;
52208;SDS011;38507;53.132;6.394;2024-01-07T14:44:14;5.90;;;3.25;;
52208;SDS011;38507;53.132;6.394;2024-01-07T14:46:40;7.47;;;3.00;;
52208;SDS011;38507;53.132;6.394;2024-01-07T14:49:06;8.30;;;3.53;;